• Join FlightAware (Why Join?)
  • Login
  • US Flag 
10:22AM EDT


 

Airport Tracker/Info


-or-


 

Live Flight TrackerFlight Track Log ✈ RPA3228 ✈ 11-Jul-2013 ✈ KBNA - KDCA

Flight Track Log - Related Links

Times and Time Zones

All times are in EDT time to prevent confusion due to time zone crossing. See the RPA3228 flight status page for this flight to view local times or setup timezone preferences in your user account.

Time Position Orientation Groundspeed Altitude Reporting Facility
EDT Latitude Longitude Course Direction KTS MPH feet Rate Location/Type
08:29AM 36.1500 -86.6667 39° Northeast 157 181 1,300  Level Nashville TRACON
08:31AM 36.2000 -86.6167 39° Northeast 239 275 3,800 1,740 Climbing Nashville TRACON
08:32AM 36.1667 -86.5333 116° Southeast 292 336 5,500 2,220 Climbing Nashville TRACON
08:33AM 36.1333 -86.4667 122° Southeast 291 335 7,700 2,820 Climbing Nashville TRACON
08:34AM 36.1486 -86.3653 79° East 290 334 10,800 2,220 Climbing Memphis Center
08:35AM 36.1661 -86.2642 78° East 308 354 12,500 2,100 Climbing Memphis Center
08:36AM 36.1872 -86.1475 77° East 332 382 15,100 2,400 Climbing Memphis Center
08:37AM 36.2186 -86.0325 71° East 352 405 17,300 2,100 Climbing Memphis Center
08:38AM 36.2667 -85.9192 62° Northeast 358 412 19,400 2,220 Climbing Memphis Center
08:38AM 36.2997 -85.8450 61° Northeast 373 429 20,900 2,040 Climbing Indianapolis Center
08:39AM 36.3564 -85.7242 60° Northeast 385 443 22,700 1,620 Climbing Indianapolis Center
08:40AM 36.4142 -85.6044 59° Northeast 399 459 24,300 1,080 Climbing Indianapolis Center
08:41AM 36.4728 -85.4794 60° Northeast 415 478 25,000 300 Climbing Indianapolis Center
08:42AM 36.5325 -85.3547 59° Northeast 418 481 25,000  Level Indianapolis Center
08:43AM 36.5914 -85.2292 60° Northeast 419 482 25,100 600 Climbing Indianapolis Center
08:45AM 36.6403 -85.0978 65° Northeast 417 480 26,300 1,260 Climbing Indianapolis Center
08:46AM 36.6831 -84.9542 70° East 433 498 27,800 1,320 Climbing Indianapolis Center
08:47AM 36.7356 -84.7811 69° East 442 509 29,100 1,380 Climbing Indianapolis Center
08:48AM 36.7806 -84.6350 69° East 448 516 30,700 1,200 Climbing Indianapolis Center
08:49AM 36.8225 -84.4961 69° East 449 517 31,700 960 Climbing Indianapolis Center
08:50AM 36.8667 -84.3469 70° East 454 522 32,700 840 Climbing Indianapolis Center
08:51AM 36.9128 -84.1958 69° East 461 531 33,500 840 Climbing Indianapolis Center
08:52AM 36.9647 -84.0167 70° East 468 539 34,500 720 Climbing Indianapolis Center
08:53AM 37.0114 -83.8619 69° East 471 542 35,000 240 Climbing Indianapolis Center
08:54AM 37.0592 -83.7058 69° East 476 548 35,000  Level Indianapolis Center
08:55AM 37.1047 -83.5489 70° East 476 548 35,000  Level Indianapolis Center
08:56AM 37.1511 -83.3911 70° East 479 551 35,000  Level Indianapolis Center
08:57AM 37.1964 -83.2347 70° East 474 545 35,000  Level Indianapolis Center
08:58AM 37.2419 -83.0761 70° East 477 549 35,000  Level Indianapolis Center
08:59AM 37.2950 -82.8892 70° East 481 554 35,000  Level Indianapolis Center
09:00AM 37.3411 -82.7281 70° East 485 558 35,000  Level Indianapolis Center
09:01AM 37.3858 -82.5700 70° East 479 551 35,000  Level Indianapolis Center
09:02AM 37.4306 -82.4119 70° East 478 550 35,000  Level Indianapolis Center
09:03AM 37.4736 -82.2525 71° East 479 551 35,000  Level Indianapolis Center
09:04AM 37.5186 -82.0947 70° East 478 550 35,000  Level Indianapolis Center
09:05AM 37.5689 -81.9094 71° East 478 550 35,000  Level Indianapolis Center
09:06AM 37.6131 -81.7517 70° East 476 548 35,000  Level Indianapolis Center
09:07AM 37.6553 -81.5919 71° East 478 550 35,000  Level Indianapolis Center
09:08AM 37.6978 -81.4328 71° East 477 549 35,000  Level Indianapolis Center
09:09AM 37.7397 -81.2806 71° East 472 543 35,000  Level Indianapolis Center
09:10AM 37.7914 -81.0969 70° East 474 545 35,000  Level Indianapolis Center
09:11AM 37.8378 -80.9639 66° East 474 545 35,000  Level Indianapolis Center
09:12AM 37.8908 -80.8133 66° East 473 544 35,000  Level Indianapolis Center
09:13AM 37.9542 -80.6311 66° East 474 545 35,000  Level Indianapolis Center
09:14AM 37.9900 -80.5350 65° Northeast 469 540 35,000  Level Washington Center
09:15AM 38.0442 -80.3828 66° East 469 540 35,000  Level Washington Center
09:16AM 38.0981 -80.2333 65° Northeast 469 540 35,000  Level Washington Center
09:17AM 38.1494 -80.0911 65° Northeast 474 545 35,000 -300 Level Washington Center
09:18AM 38.2050 -79.9411 65° Northeast 474 545 34,500 -1,500 Descending Washington Center
09:19AM 38.2564 -79.7883 67° East 474 545 32,100 -2,520 Descending Washington Center
09:20AM 38.3117 -79.6300 66° East 474 545 29,600 -2,580 Descending Washington Center
09:21AM 38.3694 -79.4661 66° East 474 545 27,000 -1,320 Descending Washington Center
09:22AM 38.4200 -79.3178 66° East 468 539 27,000  Level Washington Center
09:23AM 38.4497 -79.1628 76° East 456 525 27,000  Level Washington Center
09:24AM 38.4772 -79.0050 77° East 456 525 27,000 -600 Level Washington Center
09:25AM 38.5025 -78.8389 79° East 456 525 25,900 -1,740 Descending Washington Center
09:26AM 38.5253 -78.6886 79° East 456 525 23,600 -1,980 Descending Washington Center
09:27AM 38.5478 -78.5411 79° East 438 504 22,100 -1,320 Descending Washington Center
09:28AM 38.5722 -78.3958 78° East 424 488 21,000 -1,440 Descending Washington Center
09:29AM 38.5961 -78.2561 78° East 414 476 19,200 -1,740 Descending Washington Center
09:30AM 38.6367 -78.1244 68° East 396 456 17,500 -1,800 Descending Washington Center
09:31AM 38.6789 -77.9983 67° East 391 450 15,700 -1,800 Descending Washington Center
09:32AM 38.7142 -77.8878 68° East 363 418 14,000 -1,620 Descending Washington Center
09:33AM 38.7558 -77.7878 62° Northeast 340 391 12,500 -1,440 Descending Washington Center
09:34AM 38.8136 -77.7069 47° Northeast 310 357 11,200 -1,380 Descending Washington Center
09:35AM 38.8500 -77.6167 63° Northeast 313 360 10,000 -1,320 Descending Potomac TRACON
09:36AM 38.8833 -77.5333 63° Northeast 302 348 8,900 -1,200 Descending Potomac TRACON
09:37AM 38.9000 -77.4333 78° East 297 342 7,800 -1,260 Descending Potomac TRACON
09:38AM 38.8667 -77.3333 113° Southeast 290 334 6,400 -900 Descending Potomac TRACON
09:39AM 38.8167 -77.2500 128° Southeast 290 334 6,000 -300 Descending Potomac TRACON
09:40AM 38.7833 -77.1667 117° Southeast 290 334 5,900 -720 Descending Potomac TRACON
09:41AM 38.7333 -77.1167 142° Southeast 273 314 4,700 -1,020 Descending Potomac TRACON
09:42AM 38.6667 -77.1000 169° South 249 287 4,000 -780 Descending Potomac TRACON
09:43AM 38.6500 -77.0500 113° Southeast 210 242 3,300 -1,020 Descending Potomac TRACON
09:44AM 38.6833 -77.0167 38° Northeast 183 211 2,000 -660 Descending Potomac TRACON
09:45AM 38.7333 -77.0167 360° North 167 192 2,000 -300 Level Potomac TRACON
09:46AM 38.7667 -77.0333 339° North 160 184 1,400 -720 Descending Potomac TRACON
09:47AM 38.8167 -77.0333 360° North 135 155 600 -840 Descending Potomac TRACON